Time;durP1;ratioP1;P1;durP2;ratioP2;P2;SDS_P1;SDS_P2;PMS_P1;PMS_P2;Temp;Humidity;BMP_temperature;BMP_pressure;BME280_temperature;BME280_humidity;BME280_pressure;Samples;Min_cycle;Max_cycle;Signal;HPM_P1;HPM_P2
2022/09/26 00:01:51;;;;;;;15.52;7.45;;;12.30;99.90;;;;;;4992558;28;20066;-74
2022/09/26 00:04:19;;;;;;;13.93;6.82;;;12.30;99.90;;;;;;4991626;28;20049;-74
2022/09/26 00:06:46;;;;;;;12.82;6.88;;;12.20;99.90;;;;;;4992340;28;20053;-74
2022/09/26 00:09:13;;;;;;;12.57;6.90;;;12.20;99.90;;;;;;4991765;28;20030;-74
2022/09/26 00:11:39;;;;;;;14.25;7.10;;;12.20;99.90;;;;;;4991108;28;20536;-75
2022/09/26 00:14:10;;;;;;;14.85;6.75;;;12.20;99.90;;;;;;4991558;28;20034;-74
2022/09/26 00:16:37;;;;;;;11.48;6.35;;;12.20;99.90;;;;;;4991063;28;20022;-74
2022/09/26 00:19:03;;;;;;;15.48;7.22;;;12.10;99.90;;;;;;4992404;28;20030;-74
2022/09/26 00:21:30;;;;;;;13.98;6.68;;;12.10;99.90;;;;;;4991489;28;20451;-74
2022/09/26 00:23:57;;;;;;;17.05;7.38;;;12.00;99.90;;;;;;4992214;28;20030;-74
2022/09/26 00:26:24;;;;;;;16.23;7.15;;;12.10;99.90;;;;;;4991057;28;20038;-74
2022/09/26 00:28:50;;;;;;;14.20;6.50;;;12.00;99.90;;;;;;4992094;28;20077;-74
2022/09/26 00:31:29;;;;;;;13.57;6.35;;;12.00;99.90;;;;;;4991428;28;20026;-74
2022/09/26 00:33:55;;;;;;;12.70;6.57;;;12.00;99.90;;;;;;4990878;28;20109;-74
2022/09/26 00:36:21;;;;;;;13.68;6.07;;;11.90;99.90;;;;;;4992609;28;20033;-74
2022/09/26 00:38:46;;;;;;;10.48;5.43;;;11.90;99.90;;;;;;4991874;28;20030;-74
2022/09/26 00:41:13;;;;;;;11.02;5.63;;;11.90;99.90;;;;;;4993807;28;20041;-74
2022/09/26 00:43:45;;;;;;;10.02;6.15;;;11.80;99.90;;;;;;4994439;28;20080;-74
2022/09/26 00:46:19;;;;;;;9.65;5.80;;;11.80;99.90;;;;;;4994568;28;20146;-74
2022/09/26 00:48:49;;;;;;;11.07;5.63;;;11.80;99.90;;;;;;4995290;28;20046;-74
2022/09/26 00:51:14;;;;;;;10.00;6.10;;;11.80;99.90;;;;;;4996287;28;20033;-74
2022/09/26 00:53:45;;;;;;;10.98;5.82;;;11.80;99.90;;;;;;4995418;28;20026;-74
2022/09/26 00:56:17;;;;;;;11.00;5.72;;;11.80;99.90;;;;;;4996020;28;20023;-74
2022/09/26 00:58:52;;;;;;;11.80;5.50;;;11.80;99.90;;;;;;4994107;28;20383;-74
2022/09/26 01:01:18;;;;;;;12.30;6.10;;;11.80;99.90;;;;;;4996130;28;20049;-74
2022/09/26 01:03:46;;;;;;;14.35;6.22;;;11.70;99.90;;;;;;4995267;28;20034;-74
2022/09/26 01:06:14;;;;;;;11.25;6.18;;;11.80;99.90;;;;;;4994704;28;20037;-74
2022/09/26 01:08:48;;;;;;;13.68;6.15;;;11.80;99.90;;;;;;4995133;28;20037;-74
2022/09/26 01:11:14;;;;;;;10.88;5.82;;;11.80;99.90;;;;;;4995670;28;20027;-74
2022/09/26 01:13:41;;;;;;;11.02;5.80;;;11.80;99.90;;;;;;4993886;28;20097;-74
2022/09/26 01:16:07;;;;;;;12.68;6.53;;;11.80;99.90;;;;;;4993761;28;20060;-74
2022/09/26 01:18:33;;;;;;;12.82;6.68;;;11.80;99.90;;;;;;4995068;28;20070;-75
2022/09/26 01:21:32;;;;;;;13.80;6.97;;;11.80;99.90;;;;;;4993696;28;20034;-74
2022/09/26 01:24:32;;;;;;;12.45;6.78;;;11.80;99.90;;;;;;4993755;28;20352;-74
2022/09/26 01:27:24;;;;;;;11.40;6.38;;;11.80;99.90;;;;;;4994581;28;20119;-74
2022/09/26 01:30:02;;;;;;;12.93;6.88;;;11.80;99.90;;;;;;4977505;28;20049;-73
2022/09/26 01:33:06;;;;;;;14.88;7.28;;;11.80;99.90;;;;;;4995346;28;20490;-74
2022/09/26 01:35:43;;;;;;;12.13;7.20;;;11.80;99.90;;;;;;4993942;28;20027;-74
2022/09/26 01:38:34;;;;;;;13.43;6.13;;;11.80;99.90;;;;;;4977662;28;20031;-74
2022/09/26 01:41:31;;;;;;;10.52;5.90;;;11.80;99.90;;;;;;4977132;28;20050;-74
2022/09/26 01:44:29;;;;;;;11.80;6.00;;;11.80;99.90;;;;;;4993236;28;20129;-74
2022/09/26 01:47:30;;;;;;;12.60;6.60;;;11.80;99.90;;;;;;4993116;28;20066;-74
2022/09/26 01:50:24;;;;;;;10.23;5.72;;;11.90;99.90;;;;;;4986578;28;20492;-74
2022/09/26 01:53:00;;;;;;;11.60;6.28;;;11.80;99.90;;;;;;4967996;28;20116;-74
2022/09/26 01:55:37;;;;;;;13.82;6.07;;;11.80;99.90;;;;;;4994931;28;20034;-74
2022/09/26 01:58:31;;;;;;;13.98;6.18;;;11.80;99.90;;;;;;4993577;28;20029;-75
2022/09/26 02:01:02;;;;;;;11.98;6.22;;;11.90;99.90;;;;;;4993005;28;20385;-74
2022/09/26 02:03:34;;;;;;;12.82;6.35;;;11.80;99.90;;;;;;4993507;28;20026;-74
2022/09/26 02:06:09;;;;;;;10.05;5.50;;;11.80;99.90;;;;;;4992933;28;20033;-74
2022/09/26 02:08:47;;;;;;;11.25;6.25;;;11.70;99.90;;;;;;4993377;28;20057;-74
2022/09/26 02:11:18;;;;;;;14.07;6.55;;;11.70;99.90;;;;;;4993308;28;20023;-74
2022/09/26 02:13:56;;;;;;;10.90;5.88;;;11.70;99.90;;;;;;4993976;28;20026;-75
2022/09/26 02:16:29;;;;;;;11.45;6.60;;;11.70;99.90;;;;;;4976757;28;20027;-75
2022/09/26 02:19:18;;;;;;;10.27;5.85;;;11.60;99.90;;;;;;4992501;28;20046;-74
2022/09/26 02:21:45;;;;;;;10.82;6.25;;;11.60;99.90;;;;;;4992781;28;20088;-74
2022/09/26 02:24:10;;;;;;;9.32;5.40;;;11.60;99.90;;;;;;4994264;28;20030;-74
2022/09/26 02:26:36;;;;;;;8.95;5.47;;;11.60;99.90;;;;;;4994191;28;20030;-74
2022/09/26 02:29:02;;;;;;;13.10;4.82;;;11.60;99.90;;;;;;4992354;28;20053;-74
2022/09/26 02:31:34;;;;;;;11.45;5.03;;;11.60;99.90;;;;;;4993003;28;20470;-74
2022/09/26 02:34:01;;;;;;;;;;;11.60;99.90;;;;;;4992785;28;20683;-74
2022/09/26 02:36:27;;;;;;;8.98;5.15;;;11.60;99.90;;;;;;4976760;28;19909;-75
2022/09/26 02:38:53;;;;;;;8.43;4.97;;;11.60;99.90;;;;;;4992080;28;20038;-74
2022/09/26 02:41:28;;;;;;;8.38;4.95;;;11.60;99.90;;;;;;4992658;28;20483;-74
2022/09/26 02:44:24;;;;;;;7.63;4.68;;;11.60;99.90;;;;;;4992265;28;20022;-74
2022/09/26 02:47:15;;;;;;;9.73;4.72;;;11.50;99.90;;;;;;4993020;28;20033;-74
2022/09/26 02:49:54;;;;;;;7.63;4.72;;;11.50;99.90;;;;;;4993720;28;20046;-78
2022/09/26 02:52:47;;;;;;;10.45;4.60;;;11.50;99.90;;;;;;4992622;28;20026;-74
2022/09/26 02:55:57;;;;;;;7.07;4.35;;;11.50;99.90;;;;;;4992431;28;20035;-74
2022/09/26 02:58:49;;;;;;;8.10;4.65;;;11.40;99.90;;;;;;4936273;29;20130;-74
2022/09/26 03:01:16;;;;;;;11.75;4.68;;;11.40;99.90;;;;;;4992513;28;20475;-74
2022/09/26 03:03:49;;;;;;;7.22;4.53;;;11.40;99.90;;;;;;4992920;28;20022;-75
2022/09/26 03:06:18;;;;;;;7.03;4.15;;;11.40;99.90;;;;;;4993498;28;20029;-74
2022/09/26 03:08:47;;;;;;;5.82;4.18;;;11.40;99.90;;;;;;4991670;28;20030;-75
2022/09/26 03:11:18;;;;;;;6.97;4.22;;;11.40;99.90;;;;;;4992185;28;20388;-75
2022/09/26 03:13:44;;;;;;;8.00;4.60;;;11.40;99.90;;;;;;4991761;28;20033;-75
2022/09/26 03:16:12;;;;;;;9.18;4.07;;;11.40;99.90;;;;;;4992281;28;20470;-74
2022/09/26 03:19:08;;;;;;;7.85;4.38;;;11.40;99.90;;;;;;4991739;28;20395;-74
2022/09/26 03:21:33;;;;;;;9.77;4.60;;;11.30;99.90;;;;;;4961604;28;20071;-74
2022/09/26 03:23:59;;;;;;;8.93;4.30;;;11.30;99.90;;;;;;4993167;28;20062;-75
2022/09/26 03:26:26;;;;;;;9.40;4.80;;;11.20;99.90;;;;;;4992206;28;20464;-74
2022/09/26 03:28:55;;;;;;;9.40;5.05;;;11.20;99.90;;;;;;4992821;28;20022;-75
2022/09/26 03:31:23;;;;;;;7.00;4.38;;;11.20;99.90;;;;;;4991869;28;20031;-74
2022/09/26 03:33:49;;;;;;;8.18;5.13;;;11.20;99.90;;;;;;4991338;28;20426;-75
2022/09/26 03:36:15;;;;;;;9.88;4.85;;;11.10;99.90;;;;;;4993124;28;20030;-74
2022/09/26 03:38:40;;;;;;;7.75;4.50;;;11.20;99.90;;;;;;4992746;28;20128;-74
2022/09/26 03:41:08;;;;;;;10.38;4.93;;;11.20;99.90;;;;;;4991362;28;20475;-74
2022/09/26 03:43:34;;;;;;;11.00;5.55;;;11.20;99.90;;;;;;4993111;28;20026;-75
2022/09/26 03:46:04;;;;;;;13.57;5.85;;;11.20;99.90;;;;;;4992530;28;20030;-74
2022/09/26 03:48:31;;;;;;;13.25;6.22;;;11.20;99.90;;;;;;4991354;28;20089;-74
2022/09/26 03:51:08;;;;;;;14.48;7.03;;;11.10;99.90;;;;;;4991209;28;20464;-75
2022/09/26 03:53:39;;;;;;;10.73;5.90;;;11.10;99.90;;;;;;4993001;28;20038;-74
2022/09/26 03:56:10;;;;;;;14.60;6.68;;;11.10;99.90;;;;;;4992620;28;20030;-75
2022/09/26 03:58:36;;;;;;;15.32;7.60;;;11.10;99.90;;;;;;4993065;28;20121;-74
2022/09/26 04:01:06;;;;;;;18.33;7.32;;;11.10;99.90;;;;;;4992223;28;20169;-75
2022/09/26 04:03:36;;;;;;;13.55;6.57;;;11.10;99.90;;;;;;4993115;28;20046;-74
2022/09/26 04:06:03;;;;;;;15.73;7.38;;;11.10;99.90;;;;;;4991157;28;20033;-74
2022/09/26 04:08:30;;;;;;;20.45;8.40;;;11.10;99.90;;;;;;4991682;28;20026;-75
2022/09/26 04:11:07;;;;;;;15.73;7.82;;;11.20;99.90;;;;;;4991106;28;20022;-74
2022/09/26 04:13:33;;;;;;;17.35;7.43;;;11.20;99.90;;;;;;4992630;28;20387;-74
2022/09/26 04:16:00;;;;;;;17.17;7.88;;;11.20;99.90;;;;;;4993416;28;20026;-74
2022/09/26 04:18:27;;;;;;;20.17;7.72;;;11.20;99.90;;;;;;4995352;28;20042;-74
2022/09/26 04:21:04;;;;;;;15.30;7.35;;;11.20;99.90;;;;;;4996215;28;20531;-75
2022/09/26 04:23:33;;;;;;;15.30;8.13;;;11.20;99.90;;;;;;4996571;28;20030;-74
2022/09/26 04:26:16;;;;;;;15.05;7.93;;;11.20;99.90;;;;;;4994787;28;20476;-74
2022/09/26 04:28:43;;;;;;;19.92;8.95;;;11.20;99.90;;;;;;4995301;28;20034;-74
2022/09/26 04:31:09;;;;;;;14.30;7.40;;;11.10;99.90;;;;;;4995929;28;20049;-74
2022/09/26 04:33:38;;;;;;;15.07;8.38;;;11.20;99.90;;;;;;4995135;28;20109;-74
2022/09/26 04:36:06;;;;;;;15.32;8.10;;;11.20;99.90;;;;;;4994621;28;20026;-74
2022/09/26 04:38:32;;;;;;;13.23;7.65;;;11.20;99.90;;;;;;4994999;28;20034;-74
2022/09/26 04:41:13;;;;;;;15.48;8.38;;;11.20;99.90;;;;;;4994530;28;20538;-74
2022/09/26 04:43:39;;;;;;;16.35;7.85;;;11.20;99.90;;;;;;4995112;28;20089;-74
2022/09/26 04:46:10;;;;;;;21.52;11.13;;;11.20;99.90;;;;;;4995317;28;20057;-74
2022/09/26 04:48:36;;;;;;;15.07;8.38;;;11.20;99.90;;;;;;4978148;28;20058;-74
2022/09/26 04:51:06;;;;;;;16.38;7.63;;;11.20;99.90;;;;;;4994277;28;20073;-74
2022/09/26 04:53:33;;;;;;;15.65;7.95;;;11.20;99.90;;;;;;4994996;28;20121;-74
2022/09/26 04:55:59;;;;;;;15.07;7.25;;;11.20;99.90;;;;;;4994190;28;20038;-74
2022/09/26 04:58:25;;;;;;;16.48;7.45;;;11.20;99.90;;;;;;4994702;28;20548;-74
2022/09/26 05:00:51;;;;;;;17.52;8.18;;;11.20;99.90;;;;;;4994123;28;20486;-75
2022/09/26 05:03:17;;;;;;;19.92;8.20;;;11.20;99.90;;;;;;4994659;28;20027;-74
2022/09/26 05:05:46;;;;;;;19.05;7.40;;;11.20;99.90;;;;;;4994543;28;20463;-74
2022/09/26 05:08:12;;;;;;;19.70;7.47;;;11.10;99.90;;;;;;4993984;28;20026;-74
2022/09/26 05:10:39;;;;;;;17.00;8.00;;;11.10;99.90;;;;;;4994498;28;20034;-75
2022/09/26 05:13:06;;;;;;;18.83;7.30;;;11.10;99.90;;;;;;4993961;28;20352;-74
2022/09/26 05:15:33;;;;;;;15.55;7.90;;;11.10;99.90;;;;;;4994449;28;20073;-74
2022/09/26 05:17:59;;;;;;;20.02;7.63;;;11.10;99.90;;;;;;4993696;28;20045;-75
2022/09/26 05:20:30;;;;;;;19.48;8.68;;;11.10;99.90;;;;;;4994076;28;20081;-74
2022/09/26 05:23:00;;;;;;;19.80;8.07;;;11.00;99.90;;;;;;4993901;28;20030;-74
2022/09/26 05:28:12;;;;;;;13.18;7.47;;;11.10;99.90;;;;;;4995042;28;20037;-74
2022/09/26 05:30:39;;;;;;;15.65;7.43;;;11.10;99.90;;;;;;4994043;28;20022;-74
2022/09/26 05:33:05;;;;;;;14.23;7.15;;;11.10;99.90;;;;;;4993542;28;20081;-74
2022/09/26 05:35:34;;;;;;;13.27;7.00;;;11.10;99.90;;;;;;4994197;28;20030;-75
2022/09/26 05:38:02;;;;;;;14.35;7.95;;;11.10;99.90;;;;;;4995050;28;20030;-74
2022/09/26 05:43:11;;;;;;;14.23;6.82;;;11.10;99.90;;;;;;4994404;28;20434;-74
2022/09/26 05:45:37;;;;;;;14.50;7.03;;;11.10;99.90;;;;;;4993845;28;20026;-74
2022/09/26 05:48:04;;;;;;;16.23;7.25;;;11.10;99.90;;;;;;4994646;28;20451;-75
2022/09/26 05:50:31;;;;;;;16.58;7.35;;;11.00;99.90;;;;;;4993516;28;20487;-74
2022/09/26 05:52:57;;;;;;;20.67;7.45;;;11.10;99.90;;;;;;4994690;28;20065;-75
2022/09/26 05:55:24;;;;;;;15.95;6.68;;;11.00;99.90;;;;;;4994937;28;20037;-74
2022/09/26 05:57:51;;;;;;;21.27;7.55;;;11.10;99.90;;;;;;4994287;28;20087;-74
2022/09/26 06:00:17;;;;;;;15.82;6.50;;;11.10;99.90;;;;;;4995420;28;20030;-74
2022/09/26 06:02:42;;;;;;;13.30;6.68;;;11.20;99.90;;;;;;4996205;28;20042;-74
2022/09/26 06:05:08;;;;;;;15.43;6.05;;;11.10;99.90;;;;;;4992917;28;20026;-75
2022/09/26 06:07:33;;;;;;;12.82;6.20;;;11.20;99.90;;;;;;4993996;28;20061;-74
2022/09/26 06:09:59;;;;;;;12.00;6.03;;;11.20;99.90;;;;;;4992907;28;20034;-74
2022/09/26 06:12:27;;;;;;;13.10;6.75;;;11.20;99.90;;;;;;4994610;28;20026;-74
2022/09/26 06:14:53;;;;;;;13.40;6.43;;;11.20;99.90;;;;;;4992993;28;20062;-79
2022/09/26 06:17:19;;;;;;;13.75;6.70;;;11.20;99.90;;;;;;4993207;28;20080;-74
2022/09/26 06:19:44;;;;;;;11.48;6.00;;;11.30;99.90;;;;;;4992841;28;20034;-74
2022/09/26 06:22:10;;;;;;;11.02;6.05;;;11.30;99.90;;;;;;4993681;28;20045;-74
2022/09/26 06:24:36;;;;;;;10.27;5.97;;;11.20;99.90;;;;;;4994109;28;20365;-74
2022/09/26 06:27:02;;;;;;;10.13;5.65;;;11.30;99.90;;;;;;4992492;28;20030;-74
2022/09/26 06:29:28;;;;;;;11.27;6.05;;;11.30;99.90;;;;;;4994248;28;20061;-74
2022/09/26 06:31:54;;;;;;;8.55;5.03;;;11.20;99.90;;;;;;4994016;28;20022;-78
2022/09/26 06:34:19;;;;;;;9.85;5.07;;;11.20;99.90;;;;;;4993159;28;20057;-74
2022/09/26 06:36:45;;;;;;;8.93;5.13;;;11.20;99.90;;;;;;4992807;28;20121;-74
2022/09/26 06:39:11;;;;;;;10.38;5.28;;;11.20;99.90;;;;;;4991703;28;20481;-74
2022/09/26 06:41:37;;;;;;;11.75;5.50;;;11.20;99.90;;;;;;4992875;28;20041;-74
2022/09/26 06:44:03;;;;;;;10.13;4.85;;;11.20;99.90;;;;;;4992241;28;20456;-74
2022/09/26 06:46:30;;;;;;;10.13;4.97;;;11.20;99.90;;;;;;4994031;28;20035;-74
2022/09/26 06:48:56;;;;;;;9.30;5.50;;;11.20;99.90;;;;;;4991680;28;20058;-76
2022/09/26 06:51:22;;;;;;;9.35;4.70;;;11.20;99.90;;;;;;4992666;28;20033;-75
2022/09/26 06:53:48;;;;;;;8.82;4.72;;;11.20;99.90;;;;;;4992492;28;20361;-74
2022/09/26 06:56:13;;;;;;;8.77;4.57;;;11.20;99.90;;;;;;4992019;28;20022;-73
2022/09/26 06:58:39;;;;;;;9.93;4.80;;;11.30;99.90;;;;;;4992413;28;20030;-74
2022/09/26 07:01:05;;;;;;;8.20;3.97;;;11.30;99.90;;;;;;4992024;28;20030;-74
2022/09/26 07:03:31;;;;;;;7.50;4.07;;;11.40;99.90;;;;;;4992534;28;20033;-74
2022/09/26 07:05:57;;;;;;;6.75;3.90;;;11.40;99.90;;;;;;4991872;28;20030;-75
2022/09/26 07:08:24;;;;;;;9.45;3.78;;;11.40;99.90;;;;;;4993852;28;20068;-74
2022/09/26 07:10:50;;;;;;;6.03;3.72;;;11.50;99.90;;;;;;4993610;28;20026;-74
2022/09/26 07:13:16;;;;;;;8.18;4.13;;;11.50;99.90;;;;;;4991678;28;20061;-75
2022/09/26 07:15:44;;;;;;;5.95;3.90;;;11.50;99.90;;;;;;4993487;28;20050;-74
2022/09/26 07:18:10;;;;;;;6.75;3.67;;;11.60;99.90;;;;;;4991237;28;20133;-74
2022/09/26 07:20:46;;;;;;;9.20;4.32;;;11.60;99.90;;;;;;4992236;28;20117;-74
2022/09/26 07:23:13;;;;;;;6.65;3.88;;;11.70;99.90;;;;;;4991620;28;20419;-74
2022/09/26 07:25:39;;;;;;;7.22;4.05;;;11.70;99.90;;;;;;4993384;28;20481;-74
2022/09/26 07:28:06;;;;;;;8.57;3.88;;;11.80;99.90;;;;;;4991659;28;20066;-74
2022/09/26 07:30:32;;;;;;;8.90;3.50;;;11.70;99.90;;;;;;4991963;28;20030;-74
2022/09/26 07:33:01;;;;;;;4.22;3.35;;;11.80;99.90;;;;;;4991494;28;20033;-78
2022/09/26 07:35:28;;;;;;;5.72;3.00;;;11.80;99.90;;;;;;4993240;28;20054;-74
2022/09/26 07:37:54;;;;;;;5.68;2.90;;;11.80;99.90;;;;;;4993200;28;20033;-74
2022/09/26 07:40:21;;;;;;;5.90;2.97;;;11.80;99.90;;;;;;4991260;28;20042;-74
2022/09/26 07:42:47;;;;;;;5.38;3.28;;;11.90;99.90;;;;;;4991823;28;20034;-74
2022/09/26 07:45:13;;;;;;;6.57;3.00;;;11.90;99.90;;;;;;4992622;28;20038;-74
2022/09/26 07:50:23;;;;;;;5.88;3.15;;;12.00;99.90;;;;;;4993508;28;20057;-74
2022/09/26 07:52:49;;;;;;;6.38;3.40;;;12.20;99.90;;;;;;4997184;28;20027;-74
2022/09/26 07:55:20;;;;;;;4.75;3.05;;;12.20;99.90;;;;;;4995257;28;20027;-74
2022/09/26 07:57:48;;;;;;;7.97;2.95;;;12.20;99.90;;;;;;4995765;28;20022;-74
2022/09/26 08:00:18;;;;;;;4.45;2.90;;;12.30;99.90;;;;;;4996211;28;20042;-74
2022/09/26 08:02:45;;;;;;;5.68;3.13;;;12.40;99.90;;;;;;4995710;28;20407;-74
2022/09/26 08:05:18;;;;;;;7.25;3.10;;;12.40;99.90;;;;;;4995212;28;20030;-74
2022/09/26 08:07:45;;;;;;;6.95;3.22;;;12.40;99.90;;;;;;4995824;28;20033;-74
2022/09/26 08:10:20;;;;;;;5.95;3.08;;;12.50;99.90;;;;;;4995108;28;20456;-74
2022/09/26 08:12:47;;;;;;;6.38;2.88;;;12.50;99.90;;;;;;4995777;28;20077;-74
2022/09/26 08:15:13;;;;;;;5.22;2.47;;;12.60;99.90;;;;;;4994967;28;20097;-74
2022/09/26 08:17:39;;;;;;;5.15;2.95;;;12.60;99.90;;;;;;4995389;28;20034;-73
2022/09/26 08:20:05;;;;;;;4.53;2.88;;;12.60;99.90;;;;;;4996190;28;20470;-73
2022/09/26 08:22:31;;;;;;;5.45;2.75;;;12.70;99.90;;;;;;4995359;28;20030;-74
2022/09/26 08:24:58;;;;;;;4.38;2.72;;;12.70;99.90;;;;;;4995399;28;20029;-74
2022/09/26 08:27:25;;;;;;;7.05;3.13;;;12.80;99.90;;;;;;4994777;28;20450;-74
2022/09/26 08:29:50;;;;;;;6.32;3.00;;;12.90;99.90;;;;;;4996723;28;20038;-74
2022/09/26 08:32:18;;;;;;;4.80;3.15;;;13.00;99.90;;;;;;4994725;28;20113;-74
2022/09/26 08:34:45;;;;;;;8.85;2.90;;;13.00;99.90;;;;;;4996451;28;20030;-74
2022/09/26 08:37:10;;;;;;;5.10;2.88;;;13.00;99.90;;;;;;4994665;28;20109;-74
2022/09/26 08:39:36;;;;;;;4.82;3.20;;;13.10;99.90;;;;;;4996354;28;20121;-75
2022/09/26 08:42:47;;;;;;;5.38;3.00;;;13.10;99.90;;;;;;4995812;28;20026;-78
2022/09/26 08:48:37;;;;;;;3.50;2.47;;;13.30;99.90;;;;;;4996006;28;20096;-74
2022/09/26 08:51:21;;;;;;;5.57;2.70;;;13.40;99.90;;;;;;4994589;28;20029;-77
2022/09/26 08:53:56;;;;;;;3.65;2.80;;;13.60;99.90;;;;;;4978930;28;20426;-74
2022/09/26 08:56:30;;;;;;;6.13;2.78;;;13.60;99.90;;;;;;4995746;28;20030;-74
2022/09/26 08:59:00;;;;;;;4.65;2.55;;;13.70;99.90;;;;;;4994945;28;20026;-74
2022/09/26 09:01:29;;;;;;;5.45;2.55;;;13.80;99.90;;;;;;4993977;28;20471;-73
2022/09/26 09:04:19;;;;;;;5.70;3.25;;;14.00;99.90;;;;;;4994792;28;20026;-72
2022/09/26 09:06:45;;;;;;;7.43;2.97;;;14.10;99.90;;;;;;4995830;28;20368;-73
2022/09/26 09:09:15;;;;;;;5.10;2.40;;;14.20;99.90;;;;;;4993686;28;20037;-73
2022/09/26 09:12:07;;;;;;;5.45;2.40;;;14.30;99.90;;;;;;4996068;28;20411;-73
2022/09/26 09:14:51;;;;;;;3.55;1.98;;;14.40;99.90;;;;;;4978526;28;20030;-73
2022/09/26 09:17:29;;;;;;;6.75;2.40;;;14.50;99.90;;;;;;4977731;28;20038;-72
2022/09/26 09:20:36;;;;;;;5.97;2.45;;;14.50;99.90;;;;;;4994224;28;20037;-73
2022/09/26 09:23:24;;;;;;;3.55;2.05;;;14.40;99.90;;;;;;4978175;28;20030;-73
2022/09/26 09:26:14;;;;;;;6.30;2.08;;;14.60;99.90;;;;;;4988795;28;20062;-73
2022/09/26 09:29:04;;;;;;;4.07;2.00;;;14.50;99.90;;;;;;4995414;28;20097;-73
2022/09/26 09:31:36;;;;;;;11.10;3.97;;;14.50;99.90;;;;;;4977815;28;20114;-73
2022/09/26 09:34:05;;;;;;;5.00;2.33;;;14.60;99.90;;;;;;4995566;28;20034;-73
2022/09/26 09:36:43;;;;;;;6.38;2.45;;;14.60;99.90;;;;;;4995204;28;20037;-73
2022/09/26 09:39:15;;;;;;;5.15;1.88;;;14.70;99.90;;;;;;4994985;28;20084;-73
2022/09/26 09:41:46;;;;;;;7.68;2.25;;;14.90;99.90;;;;;;4995528;28;20046;-73
2022/09/26 09:44:23;;;;;;;6.03;2.00;;;14.80;99.90;;;;;;4994665;28;20026;-73
2022/09/26 09:46:50;;;;;;;3.15;1.63;;;14.80;99.90;;;;;;4977865;28;20062;-74
2022/09/26 09:49:21;;;;;;;4.18;1.30;;;14.90;99.90;;;;;;4993130;28;20046;-73
2022/09/26 09:52:18;;;;;;;3.92;1.27;;;15.00;99.90;;;;;;4993966;28;20030;-73
2022/09/26 09:55:23;;;;;;;4.38;1.30;;;15.30;99.90;;;;;;4993995;28;20033;-73
2022/09/26 09:58:36;;;;;;;2.67;1.30;;;15.30;99.90;;;;;;4957279;28;20391;-73
2022/09/26 10:01:24;;;;;;;4.70;1.30;;;15.40;99.90;;;;;;4954025;29;20040;-73
2022/09/26 10:04:04;;;;;;;3.88;1.30;;;15.40;99.90;;;;;;4993837;28;20030;-73
2022/09/26 10:06:31;;;;;;;5.03;1.70;;;15.40;99.90;;;;;;4993216;28;20034;-73
2022/09/26 10:08:57;;;;;;;3.85;1.25;;;15.50;99.90;;;;;;4993764;28;20026;-73
2022/09/26 10:11:40;;;;;;;2.53;1.30;;;15.40;99.90;;;;;;4993034;28;20541;-73
2022/09/26 10:14:12;;;;;;;3.78;1.42;;;15.40;99.90;;;;;;4994307;28;20025;-73
2022/09/26 10:17:23;;;;;;;2.13;1.23;;;15.30;99.90;;;;;;4993665;28;20037;-74
2022/09/26 10:19:50;;;;;;;3.22;1.40;;;15.20;99.90;;;;;;4975081;28;20074;-74
2022/09/26 10:22:31;;;;;;;4.20;1.30;;;15.20;99.90;;;;;;4993024;28;20030;-73
2022/09/26 10:25:07;;;;;;;3.50;1.60;;;15.10;99.90;;;;;;4993402;28;20388;-73
2022/09/26 10:27:36;;;;;;;4.78;1.08;;;15.10;99.90;;;;;;4994259;28;20026;-73
2022/09/26 10:30:17;;;;;;;3.53;1.13;;;15.20;99.90;;;;;;4993191;28;20173;-73
2022/09/26 10:32:46;;;;;;;2.60;1.10;;;15.30;99.90;;;;;;4977117;28;20026;-73
2022/09/26 10:35:23;;;;;;;3.40;1.13;;;15.20;99.90;;;;;;4994096;28;20027;-73
2022/09/26 10:38:04;;;;;;;5.07;1.13;;;15.20;99.90;;;;;;4994405;28;20033;-73
2022/09/26 10:40:45;;;;;;;4.28;1.35;;;15.20;99.90;;;;;;4993809;28;20065;-73
2022/09/26 10:43:36;;;;;;;2.80;1.25;;;15.20;99.90;;;;;;4992620;28;20100;-74
2022/09/26 10:46:13;;;;;;;1.23;1.02;;;15.10;99.90;;;;;;4993003;28;20053;-73
2022/09/26 10:48:55;;;;;;;2.50;1.58;;;15.20;99.90;;;;;;4992597;28;20066;-73
2022/09/26 10:51:30;;;;;;;4.00;1.70;;;15.20;99.90;;;;;;4993985;28;20061;-73
2022/09/26 10:54:21;;;;;;;5.07;2.40;;;15.40;99.90;;;;;;4994080;28;20098;-73
2022/09/26 10:56:53;;;;;;;4.30;1.60;;;15.50;99.90;;;;;;4976678;28;20117;-73
2022/09/26 10:59:25;;;;;;;3.38;1.83;;;15.40;99.90;;;;;;4992205;28;20038;-73
2022/09/26 11:01:58;;;;;;;5.10;1.70;;;15.20;99.90;;;;;;4994210;28;20077;-73
2022/09/26 11:07:25;;;;;;;2.17;1.52;;;15.00;99.90;;;;;;4993457;28;20047;-73
2022/09/26 11:09:56;;;;;;;3.38;1.63;;;15.20;99.90;;;;;;4992755;28;20042;-73
2022/09/26 11:12:26;;;;;;;4.63;2.72;;;15.30;99.90;;;;;;4993396;28;20372;-73
2022/09/26 11:15:03;;;;;;;4.25;1.80;;;15.40;99.90;;;;;;4993411;28;20033;-73
2022/09/26 11:17:47;;;;;;;4.95;1.25;;;15.40;99.90;;;;;;4991865;28;20543;-73
2022/09/26 11:20:26;;;;;;;3.53;1.35;;;15.40;99.90;;;;;;4991860;28;20038;-74
2022/09/26 11:23:06;;;;;;;2.72;1.20;;;15.40;99.90;;;;;;4993688;28;20034;-73
2022/09/26 11:25:50;;;;;;;1.20;0.85;;;15.30;99.90;;;;;;4991725;28;20030;-73
2022/09/26 11:28:35;;;;;;;3.97;1.00;;;15.20;99.90;;;;;;4991914;28;20058;-74
2022/09/26 11:31:14;;;;;;;1.48;1.10;;;15.10;99.90;;;;;;4992417;28;20492;-72
2022/09/26 11:33:43;;;;;;;2.08;1.10;;;15.00;99.90;;;;;;4992468;28;20033;-73
2022/09/26 11:36:34;;;;;;;2.58;0.90;;;15.00;99.90;;;;;;4992159;28;20026;-73
2022/09/26 11:39:24;;;;;;;2.85;0.93;;;14.90;99.90;;;;;;4993400;28;20460;-73
2022/09/26 11:42:02;;;;;;;2.70;1.10;;;14.90;99.90;;;;;;4992136;28;20038;-73
2022/09/26 11:44:41;;;;;;;2.40;0.80;;;14.70;99.90;;;;;;4992909;28;20022;-73
2022/09/26 11:47:23;;;;;;;1.27;0.80;;;14.60;99.90;;;;;;4993681;28;20149;-73
2022/09/26 11:50:22;;;;;;;1.48;0.73;;;14.40;99.90;;;;;;4993370;28;20054;-73
2022/09/26 11:52:51;;;;;;;0.90;0.70;;;14.20;99.90;;;;;;4993252;28;20049;-73
2022/09/26 11:55:29;;;;;;;0.93;0.75;;;13.90;99.90;;;;;;4975383;28;20030;-72
2022/09/26 11:58:13;;;;;;;1.17;0.70;;;13.80;99.90;;;;;;4992103;28;20088;-73
2022/09/26 12:01:06;;;;;;;0.52;0.40;;;13.70;99.90;;;;;;4976066;28;20038;-73
2022/09/26 12:03:57;;;;;;;2.65;0.50;;;13.70;99.90;;;;;;4992693;28;20026;-73
2022/09/26 12:06:32;;;;;;;0.88;0.45;;;13.80;99.90;;;;;;4992482;28;20535;-73
2022/09/26 12:09:17;;;;;;;1.67;0.63;;;13.80;99.90;;;;;;4991661;28;20034;-73
2022/09/26 12:11:52;;;;;;;4.07;0.88;;;13.80;99.90;;;;;;4975843;28;20077;-73
2022/09/26 12:14:35;;;;;;;1.35;0.73;;;13.70;99.90;;;;;;4992655;28;20030;-75
2022/09/26 12:17:06;;;;;;;2.58;0.50;;;13.70;99.90;;;;;;4975820;28;20027;-73
2022/09/26 12:20:11;;;;;;;1.55;0.80;;;13.80;99.90;;;;;;4992606;28;20058;-75
2022/09/26 12:22:58;;;;;;;2.03;0.85;;;13.80;99.90;;;;;;4972852;28;20061;-76
2022/09/26 12:25:28;;;;;;;2.97;0.93;;;13.80;99.90;;;;;;4991276;28;20027;-73
2022/09/26 12:28:10;;;;;;;1.73;0.90;;;13.80;99.90;;;;;;4975614;28;20353;-73
2022/09/26 12:30:39;;;;;;;;;;;13.70;99.90;;;;;;4975493;28;20034;-73
2022/09/26 12:33:36;;;;;;;0.70;0.50;;;13.50;99.90;;;;;;4975507;28;19906;-73
2022/09/26 12:36:04;;;;;;;1.77;0.60;;;13.30;99.90;;;;;;4993509;28;20028;-73
2022/09/26 12:38:53;;;;;;;1.77;0.55;;;13.20;99.90;;;;;;4996032;28;20031;-73
2022/09/26 12:41:37;;;;;;;0.93;0.50;;;13.20;99.90;;;;;;4978683;28;20173;-73
2022/09/26 12:44:46;;;;;;;1.58;0.55;;;13.30;99.90;;;;;;4979109;28;20030;-73
2022/09/26 12:47:33;;;;;;;1.50;0.82;;;13.30;99.90;;;;;;4994975;28;20038;-73
2022/09/26 12:50:13;;;;;;;3.92;1.00;;;13.30;99.90;;;;;;4996469;28;20061;-73
2022/09/26 12:53:18;;;;;;;2.05;1.00;;;13.30;99.90;;;;;;4994659;28;20027;-73
2022/09/26 12:56:06;;;;;;;3.42;0.88;;;13.20;99.90;;;;;;4995259;28;20029;-73
2022/09/26 12:58:49;;;;;;;2.78;0.70;;;13.20;99.90;;;;;;4978063;28;20379;-73
2022/09/26 13:01:31;;;;;;;3.67;1.15;;;13.40;99.90;;;;;;4978842;28;20041;-73
2022/09/26 13:04:35;;;;;;;1.92;0.82;;;13.50;99.90;;;;;;4978988;28;20472;-73
2022/09/26 13:07:19;;;;;;;2.13;0.70;;;13.60;99.90;;;;;;4977959;28;20030;-73
2022/09/26 13:10:04;;;;;;;2.75;0.95;;;13.70;99.90;;;;;;4994988;28;20034;-73
2022/09/26 13:12:58;;;;;;;3.33;0.93;;;14.00;99.90;;;;;;4995633;28;20335;-73
2022/09/26 13:16:06;;;;;;;2.28;1.10;;;14.20;99.90;;;;;;4994275;28;20030;-73
2022/09/26 13:18:43;;;;;;;3.05;1.08;;;14.60;99.90;;;;;;4993757;28;20088;-73
2022/09/26 13:21:14;;;;;;;3.88;1.33;;;14.90;99.90;;;;;;4994779;28;20035;-73
2022/09/26 13:23:52;;;;;;;3.10;1.20;;;15.40;99.90;;;;;;4995348;28;20031;-73
2022/09/26 13:26:30;;;;;;;2.13;1.17;;;15.50;99.90;;;;;;4994688;28;20427;-73
2022/09/26 13:29:07;;;;;;;4.72;1.27;;;15.70;99.90;;;;;;4994658;28;20037;-73
2022/09/26 13:32:02;;;;;;;2.25;1.40;;;16.10;99.90;;;;;;4993817;28;20420;-73
2022/09/26 13:34:36;;;;;;;4.32;1.08;;;16.80;99.90;;;;;;4993848;28;20031;-73